createdAt,value
2018-05-27T00:00:03.108Z,98587
2018-05-27T00:02:32.696Z,98591
2018-05-27T00:05:01.510Z,98586
2018-05-27T00:07:30.326Z,98586
2018-05-27T00:09:59.215Z,98586
2018-05-27T00:12:28.812Z,98592
2018-05-27T00:14:58.404Z,98593
2018-05-27T00:17:27.984Z,98585
2018-05-27T00:19:56.799Z,98583
2018-05-27T00:22:26.410Z,98583
2018-05-27T00:24:55.262Z,98578
2018-05-27T00:27:24.855Z,98577
2018-05-27T00:29:53.669Z,98573
2018-05-27T00:32:23.214Z,98572
2018-05-27T00:34:52.019Z,98563
2018-05-27T00:37:20.843Z,98553
2018-05-27T00:39:49.652Z,98545
2018-05-27T00:42:19.234Z,98536
2018-05-27T00:44:49.686Z,98535
2018-05-27T00:47:19.258Z,98532
2018-05-27T00:49:49.647Z,98532
2018-05-27T00:52:18.474Z,98533
2018-05-27T00:54:47.302Z,98534
2018-05-27T00:57:16.860Z,98531
2018-05-27T00:59:45.658Z,98531
2018-05-27T01:02:14.452Z,98525
2018-05-27T01:04:43.254Z,98527
2018-05-27T01:07:12.100Z,98528
2018-05-27T01:09:40.888Z,98519
2018-05-27T01:12:09.721Z,98518
2018-05-27T01:14:38.540Z,98515
2018-05-27T01:17:08.995Z,98512
2018-05-27T01:19:37.814Z,98510
2018-05-27T01:22:06.613Z,98504
2018-05-27T01:24:35.418Z,98501
2018-05-27T01:27:04.236Z,98504
2018-05-27T01:29:33.787Z,98499
2018-05-27T01:32:02.630Z,98497
2018-05-27T01:34:32.182Z,98497
2018-05-27T01:37:00.999Z,98495
2018-05-27T01:39:29.805Z,98494
2018-05-27T01:41:59.429Z,98498
2018-05-27T01:44:28.318Z,98497
2018-05-27T01:46:57.943Z,98497
2018-05-27T01:49:27.547Z,98499
2018-05-27T01:51:57.154Z,98491
2018-05-27T01:54:25.964Z,98490
2018-05-27T01:56:54.786Z,98489
2018-05-27T01:59:24.403Z,98483
2018-05-27T02:01:54.635Z,98483
2018-05-27T02:04:24.211Z,98485
2018-05-27T02:06:53.098Z,98483
2018-05-27T02:09:21.983Z,98478
2018-05-27T02:11:51.536Z,98477
2018-05-27T02:14:20.400Z,98474
2018-05-27T02:16:49.994Z,98474
2018-05-27T02:19:18.792Z,98474
2018-05-27T02:21:48.398Z,98475
2018-05-27T02:24:17.198Z,98472
2018-05-27T02:26:46.796Z,98477
2018-05-27T02:29:15.616Z,98475
2018-05-27T02:31:44.434Z,98474
2018-05-27T02:34:13.256Z,98468
2018-05-27T02:36:42.054Z,98471
2018-05-27T02:39:10.850Z,98470
2018-05-27T02:41:39.714Z,98468
2018-05-27T02:44:08.628Z,98468
2018-05-27T02:46:38.216Z,98465
2018-05-27T02:49:07.044Z,98458
2018-05-27T02:51:35.834Z,98461
2018-05-27T02:54:04.712Z,98461
2018-05-27T02:56:34.327Z,98463
2018-05-27T02:59:03.908Z,98469
2018-05-27T03:01:32.717Z,98470
2018-05-27T03:04:01.584Z,98469
2018-05-27T03:06:31.186Z,98465
2018-05-27T03:09:00.792Z,98470
2018-05-27T03:11:30.340Z,98476
2018-05-27T03:13:59.948Z,98474
2018-05-27T03:16:29.496Z,98472
2018-05-27T03:18:58.312Z,98473
2018-05-27T03:21:27.109Z,98465
2018-05-27T03:23:55.915Z,98468
2018-05-27T03:26:24.728Z,98472
2018-05-27T03:28:54.327Z,98467
2018-05-27T03:31:23.237Z,98463
2018-05-27T03:33:52.091Z,98455
2018-05-27T03:36:21.688Z,98455
2018-05-27T03:38:50.509Z,98454
2018-05-27T03:41:19.321Z,98456
2018-05-27T03:43:48.139Z,98461
2018-05-27T03:46:17.007Z,98464
2018-05-27T03:48:45.910Z,98468
2018-05-27T03:51:15.465Z,98469
2018-05-27T03:53:44.327Z,98472
2018-05-27T03:56:13.893Z,98472
2018-05-27T03:58:42.729Z,98475
2018-05-27T04:01:12.407Z,98480
2018-05-27T04:03:41.224Z,98476
2018-05-27T04:06:27.863Z,98474
2018-05-27T04:08:56.693Z,98481
2018-05-27T04:11:25.493Z,98486
2018-05-27T04:13:54.303Z,98490
2018-05-27T04:16:23.886Z,98487
2018-05-27T04:18:52.720Z,98484
2018-05-27T04:21:21.567Z,98479
2018-05-27T04:23:50.409Z,98477
2018-05-27T04:26:20.005Z,98477
2018-05-27T04:28:48.797Z,98474
2018-05-27T04:31:18.387Z,98477
2018-05-27T04:33:47.177Z,98480
2018-05-27T04:36:16.015Z,98482
2018-05-27T04:38:44.917Z,98482
2018-05-27T04:41:14.505Z,98484
2018-05-27T04:43:43.394Z,98490
2018-05-27T04:46:12.989Z,98487
2018-05-27T04:48:42.786Z,98487
2018-05-27T04:51:12.224Z,98488
2018-05-27T04:53:41.037Z,98488
2018-05-27T04:56:10.613Z,98489
2018-05-27T04:58:39.412Z,98484
2018-05-27T05:01:08.212Z,98482
2018-05-27T05:03:37.008Z,98485
2018-05-27T05:06:05.836Z,98492
2018-05-27T05:08:35.436Z,98490
2018-05-27T05:11:05.017Z,98496
2018-05-27T05:13:33.860Z,98497
2018-05-27T05:16:03.486Z,98502
2018-05-27T05:18:33.053Z,98501
2018-05-27T05:21:01.886Z,98502
2018-05-27T05:23:30.669Z,98504
2018-05-27T05:25:59.475Z,98506
2018-05-27T05:28:28.284Z,98505
2018-05-27T05:30:57.108Z,98509
2018-05-27T05:33:26.674Z,98508
2018-05-27T05:35:55.478Z,98514
2018-05-27T05:38:24.277Z,98508
2018-05-27T05:40:53.852Z,98508
2018-05-27T05:43:23.466Z,98511
2018-05-27T05:45:52.253Z,98516
2018-05-27T05:48:21.184Z,98515
2018-05-27T05:50:50.782Z,98523
2018-05-27T05:53:19.593Z,98526
2018-05-27T05:55:48.387Z,98527
2018-05-27T05:58:17.196Z,98524
2018-05-27T06:00:46.756Z,98533
2018-05-27T06:03:16.701Z,98535
2018-05-27T06:05:45.512Z,98537
2018-05-27T06:08:14.345Z,98536
2018-05-27T06:10:43.966Z,98538
2018-05-27T06:13:13.645Z,98538
2018-05-27T06:15:43.216Z,98547
2018-05-27T06:18:12.027Z,98550
2018-05-27T06:20:41.630Z,98542
2018-05-27T06:23:10.454Z,98539
2018-05-27T06:25:39.288Z,98538
2018-05-27T06:28:08.882Z,98538
2018-05-27T06:30:38.467Z,98543
2018-05-27T06:33:07.250Z,98541
2018-05-27T06:35:36.874Z,98541
2018-05-27T06:38:06.486Z,98535
2018-05-27T06:40:36.071Z,98531
2018-05-27T06:43:05.695Z,98527
2018-05-27T06:45:34.505Z,98526
2018-05-27T06:48:03.335Z,98530
2018-05-27T06:50:32.226Z,98533
2018-05-27T06:53:01.841Z,98532
2018-05-27T06:55:30.641Z,98532
2018-05-27T06:57:59.444Z,98533
2018-05-27T07:00:28.253Z,98533
2018-05-27T07:02:57.821Z,98536
2018-05-27T07:05:26.610Z,98544
2018-05-27T07:07:55.412Z,98534
2018-05-27T07:10:24.329Z,98533
2018-05-27T07:12:53.161Z,98533
2018-05-27T07:15:21.972Z,98529
2018-05-27T07:17:51.554Z,98529
2018-05-27T07:20:20.367Z,98533
2018-05-27T07:22:49.976Z,98528
2018-05-27T07:25:18.752Z,98528
2018-05-27T07:27:47.558Z,98528
2018-05-27T07:30:16.516Z,98526
2018-05-27T07:32:45.318Z,98526
2018-05-27T07:35:14.192Z,98529
2018-05-27T07:37:43.800Z,98530
2018-05-27T07:40:13.389Z,98522
2018-05-27T07:42:43.013Z,98521
2018-05-27T07:45:11.822Z,98518
2018-05-27T07:47:40.711Z,98516
2018-05-27T07:50:11.216Z,98516
2018-05-27T07:52:40.099Z,98515
2018-05-27T07:55:08.924Z,98510
2018-05-27T07:57:37.733Z,98510
2018-05-27T08:00:06.539Z,98508
2018-05-27T08:02:36.137Z,98503
2018-05-27T08:05:04.944Z,98495
2018-05-27T08:07:33.858Z,98495
2018-05-27T08:10:02.649Z,98495
2018-05-27T08:12:32.274Z,98495
2018-05-27T08:15:01.045Z,98489
2018-05-27T08:17:29.851Z,98489
2018-05-27T08:19:59.461Z,98489
2018-05-27T08:22:28.275Z,98484
2018-05-27T08:24:57.114Z,98483
2018-05-27T08:27:25.931Z,98482
2018-05-27T08:29:54.729Z,98485
2018-05-27T08:32:23.557Z,98482
2018-05-27T08:34:52.365Z,98480
2018-05-27T08:37:21.195Z,98481
2018-05-27T08:39:49.989Z,98483
2018-05-27T08:42:18.881Z,98482
2018-05-27T08:44:47.717Z,98479
2018-05-27T08:47:16.519Z,98477
2018-05-27T08:49:45.319Z,98480
2018-05-27T08:52:14.189Z,98481
2018-05-27T08:54:43.848Z,98479
2018-05-27T08:57:12.665Z,98482
2018-05-27T08:59:41.463Z,98481
2018-05-27T09:02:10.358Z,98480
2018-05-27T09:04:39.208Z,98489
2018-05-27T09:07:08.812Z,98484
2018-05-27T09:09:38.137Z,98483
2018-05-27T09:12:06.968Z,98481
2018-05-27T09:14:36.549Z,98481
2018-05-27T09:17:05.346Z,98477
2018-05-27T09:19:34.918Z,98474
2018-05-27T09:22:03.746Z,98472
2018-05-27T09:24:32.560Z,98472
2018-05-27T09:27:01.366Z,98474
2018-05-27T09:29:30.197Z,98475
2018-05-27T09:31:59.090Z,98473
2018-05-27T09:34:27.926Z,98471
2018-05-27T09:36:57.506Z,98467
2018-05-27T09:39:26.302Z,98471
2018-05-27T09:41:55.898Z,98468
2018-05-27T09:44:24.696Z,98473
2018-05-27T09:46:53.529Z,98471
2018-05-27T09:49:23.088Z,98474
2018-05-27T09:51:51.896Z,98481
2018-05-27T09:54:20.812Z,98475
2018-05-27T09:56:49.649Z,98479
2018-05-27T09:59:18.473Z,98480
2018-05-27T10:01:47.290Z,98479
2018-05-27T10:04:16.918Z,98481
2018-05-27T10:06:45.729Z,98476
2018-05-27T10:09:14.576Z,98477
2018-05-27T10:11:43.376Z,98477
2018-05-27T10:14:12.207Z,98478
2018-05-27T10:16:41.073Z,98479
2018-05-27T10:19:10.631Z,98477
2018-05-27T10:21:39.469Z,98465
2018-05-27T10:24:08.262Z,98464
2018-05-27T10:26:37.066Z,98468
2018-05-27T10:29:06.692Z,98469
2018-05-27T10:31:35.462Z,98467
2018-05-27T10:34:04.341Z,98466
2018-05-27T10:36:33.882Z,98460
2018-05-27T10:39:02.696Z,98456
2018-05-27T10:41:31.491Z,98457
2018-05-27T10:44:00.312Z,98457
2018-05-27T10:46:29.132Z,98459
2018-05-27T10:48:58.716Z,98455
2018-05-27T10:51:27.540Z,98462
2018-05-27T10:53:56.387Z,98450
2018-05-27T10:56:25.173Z,98447
2018-05-27T10:58:54.743Z,98442
2018-05-27T11:01:23.552Z,98441
2018-05-27T11:03:52.420Z,98441
2018-05-27T11:06:21.968Z,98440
2018-05-27T11:08:50.780Z,98437
2018-05-27T11:11:19.598Z,98434
2018-05-27T11:13:48.446Z,98432
2018-05-27T11:16:18.028Z,98428
2018-05-27T11:18:46.897Z,98423
2018-05-27T11:21:15.687Z,98419
2018-05-27T11:23:45.869Z,98421
2018-05-27T11:26:14.704Z,98419
2018-05-27T11:28:44.247Z,98417
2018-05-27T11:31:13.051Z,98413
2018-05-27T11:33:41.871Z,98412
2018-05-27T11:36:10.784Z,98413
2018-05-27T11:38:40.372Z,98400
2018-05-27T11:41:09.302Z,98393
2018-05-27T11:43:38.081Z,98392
2018-05-27T11:46:07.003Z,98389
2018-05-27T11:48:35.844Z,98388
2018-05-27T11:51:04.643Z,98383
2018-05-27T11:53:33.419Z,98377
2018-05-27T11:56:02.221Z,98374
2018-05-27T11:58:31.030Z,98372
2018-05-27T12:01:00.573Z,98365
2018-05-27T12:03:30.677Z,98362
2018-05-27T12:06:01.003Z,98360
2018-05-27T12:08:29.911Z,98351
2018-05-27T12:10:59.531Z,98348
2018-05-27T12:13:29.612Z,98348
2018-05-27T12:15:58.422Z,98344
2018-05-27T12:18:27.268Z,98341
2018-05-27T12:20:56.826Z,98335
2018-05-27T12:23:25.786Z,98329
2018-05-27T12:25:55.407Z,98325
2018-05-27T12:28:24.969Z,98326
2018-05-27T12:30:53.775Z,98318
2018-05-27T12:33:23.132Z,98317
2018-05-27T12:35:52.443Z,98315
2018-05-27T12:38:22.049Z,98313
2018-05-27T12:40:51.616Z,98310
2018-05-27T12:43:20.710Z,98303
2018-05-27T12:45:49.544Z,98306
2018-05-27T12:48:18.434Z,98306
2018-05-27T12:50:47.247Z,98299
2018-05-27T12:53:16.041Z,98301
2018-05-27T12:55:44.892Z,98294
2018-05-27T12:58:13.771Z,98287
2018-05-27T13:00:42.574Z,98287
2018-05-27T13:03:12.190Z,98283
2018-05-27T13:05:41.806Z,98286
2018-05-27T13:08:11.340Z,98277
2018-05-27T13:10:40.202Z,98273
2018-05-27T13:13:09.744Z,98272
2018-05-27T13:15:38.626Z,98256
2018-05-27T13:18:07.403Z,98258
2018-05-27T13:20:37.658Z,98250
2018-05-27T13:23:08.046Z,98245
2018-05-27T13:25:37.671Z,98244
2018-05-27T13:28:07.240Z,98237
2018-05-27T13:30:36.058Z,98244
2018-05-27T13:33:05.625Z,98236
2018-05-27T13:35:34.505Z,98235
2018-05-27T13:38:04.057Z,98237
2018-05-27T13:40:32.869Z,98239
2018-05-27T13:43:01.679Z,98237
2018-05-27T13:45:30.475Z,98239
2018-05-27T13:47:59.339Z,98232
2018-05-27T13:50:28.920Z,98230
2018-05-27T13:52:58.513Z,98231
2018-05-27T13:55:27.375Z,98231
2018-05-27T13:57:56.953Z,98229
2018-05-27T14:00:25.787Z,98227
2018-05-27T14:02:54.576Z,98225
2018-05-27T14:05:23.368Z,98228
2018-05-27T14:07:52.180Z,98221
2018-05-27T14:10:21.074Z,98221
2018-05-27T14:12:50.600Z,98220
2018-05-27T14:15:19.427Z,98213
2018-05-27T14:17:48.223Z,98211
2018-05-27T14:20:17.796Z,98210
2018-05-27T14:22:46.735Z,98211
2018-05-27T14:25:15.636Z,98208
2018-05-27T14:27:44.390Z,98207
2018-05-27T14:30:13.208Z,98206
2018-05-27T14:32:42.823Z,98214
2018-05-27T14:35:12.430Z,98205
2018-05-27T14:37:42.047Z,98200
2018-05-27T14:40:11.602Z,98197
2018-05-27T14:42:40.432Z,98197
2018-05-27T14:45:09.985Z,98197
2018-05-27T14:47:38.812Z,98186
2018-05-27T14:50:07.700Z,98188
2018-05-27T14:52:37.302Z,98187
2018-05-27T14:55:06.128Z,98174
2018-05-27T14:57:34.961Z,98174
2018-05-27T15:00:03.816Z,98173
2018-05-27T15:02:34.214Z,98171
2018-05-27T15:05:03.037Z,98174
2018-05-27T15:07:31.860Z,98179
2018-05-27T15:10:01.436Z,98179
2018-05-27T15:12:30.250Z,98177
2018-05-27T15:14:59.070Z,98169
2018-05-27T15:17:27.874Z,98169
2018-05-27T15:19:56.705Z,98172
2018-05-27T15:22:25.586Z,98175
2018-05-27T15:24:54.494Z,98180
2018-05-27T15:27:24.072Z,98179
2018-05-27T15:29:52.939Z,98185
2018-05-27T15:32:22.599Z,98184
2018-05-27T15:34:51.403Z,98187
2018-05-27T15:37:20.272Z,98189
2018-05-27T15:39:49.076Z,98190
2018-05-27T15:42:18.687Z,98187
2018-05-27T15:44:47.566Z,98189
2018-05-27T15:47:17.123Z,98187
2018-05-27T15:49:45.936Z,98192
2018-05-27T15:52:14.763Z,98187
2018-05-27T15:54:43.573Z,98183
2018-05-27T15:57:12.407Z,98180
2018-05-27T15:59:41.220Z,98178
2018-05-27T16:02:10.059Z,98179
2018-05-27T16:04:39.661Z,98172
2018-05-27T16:07:08.581Z,98167
2018-05-27T16:09:38.148Z,98168
2018-05-27T16:12:07.055Z,98163
2018-05-27T16:14:35.853Z,98163
2018-05-27T16:17:04.690Z,98163
2018-05-27T16:19:33.510Z,98159
2018-05-27T16:22:03.114Z,98160
2018-05-27T16:24:31.941Z,98163
2018-05-27T16:27:00.725Z,98160
2018-05-27T16:29:29.598Z,98154
2018-05-27T16:31:59.163Z,98148
2018-05-27T16:34:28.024Z,98143
2018-05-27T16:36:57.591Z,98148
2018-05-27T16:39:26.421Z,98144
2018-05-27T16:41:55.319Z,98151
2018-05-27T16:44:24.117Z,98148
2018-05-27T16:46:52.916Z,98149
2018-05-27T16:49:21.745Z,98152
2018-05-27T16:51:51.325Z,98142
2018-05-27T16:54:20.125Z,98146
2018-05-27T16:56:48.965Z,98148
2018-05-27T16:59:18.547Z,98151
2018-05-27T17:01:47.334Z,98152
2018-05-27T17:04:16.133Z,98153
2018-05-27T17:06:44.949Z,98150
2018-05-27T17:09:13.729Z,98154
2018-05-27T17:11:43.353Z,98149
2018-05-27T17:14:12.163Z,98147
2018-05-27T17:16:41.016Z,98145
2018-05-27T17:19:09.829Z,98152
2018-05-27T17:21:38.718Z,98150
2018-05-27T17:24:07.556Z,98152
2018-05-27T17:26:37.171Z,98155
2018-05-27T17:29:06.710Z,98158
2018-05-27T17:31:35.534Z,98152
2018-05-27T17:34:04.444Z,98151
2018-05-27T17:36:33.994Z,98151
2018-05-27T17:39:02.930Z,98150
2018-05-27T17:41:32.528Z,98145
2018-05-27T17:44:01.327Z,98146
2018-05-27T17:46:30.169Z,98149
2018-05-27T17:48:59.802Z,98154
2018-05-27T17:51:28.604Z,98153
2018-05-27T17:53:58.175Z,98160
2018-05-27T17:56:26.986Z,98157
2018-05-27T17:58:55.809Z,98160
2018-05-27T18:01:24.596Z,98158
2018-05-27T18:03:54.294Z,98159
2018-05-27T18:06:23.130Z,98161
2018-05-27T18:08:51.938Z,98165
2018-05-27T18:11:20.841Z,98173
2018-05-27T18:13:49.652Z,98165
2018-05-27T18:16:18.544Z,98169
2018-05-27T18:18:47.408Z,98169
2018-05-27T18:21:16.264Z,98167
2018-05-27T18:23:46.087Z,98171
2018-05-27T18:26:15.633Z,98168
2018-05-27T18:28:44.449Z,98172
2018-05-27T18:31:14.009Z,98171
2018-05-27T18:33:43.254Z,98172
2018-05-27T18:36:12.114Z,98170
2018-05-27T18:38:41.741Z,98178
2018-05-27T18:41:10.527Z,98180
2018-05-27T18:43:40.112Z,98177
2018-05-27T18:46:09.704Z,98191
2018-05-27T18:48:38.548Z,98198
2018-05-27T18:51:07.346Z,98197
2018-05-27T18:53:36.944Z,98194
2018-05-27T18:56:05.743Z,98192
2018-05-27T18:58:34.549Z,98189
2018-05-27T19:01:03.364Z,98189
2018-05-27T19:03:32.746Z,98204
2018-05-27T19:06:01.537Z,98212
2018-05-27T19:08:31.118Z,98226
2018-05-27T19:10:59.923Z,98225
2018-05-27T19:13:29.937Z,98231
2018-05-27T19:15:58.756Z,98225
2018-05-27T19:18:27.688Z,98232
2018-05-27T19:20:57.263Z,98235
2018-05-27T19:23:26.206Z,98230
2018-05-27T19:25:55.766Z,98232
2018-05-27T19:28:24.608Z,98236
2018-05-27T19:30:54.217Z,98239
2018-05-27T19:33:22.996Z,98243
2018-05-27T19:35:51.800Z,98247
2018-05-27T19:38:20.626Z,98245
2018-05-27T19:40:49.424Z,98245
2018-05-27T19:43:23.931Z,98243
2018-05-27T19:45:52.696Z,98255
2018-05-27T19:48:21.520Z,98255
2018-05-27T19:50:51.088Z,98261
2018-05-27T19:53:19.952Z,98262
2018-05-27T19:55:48.804Z,98258
2018-05-27T19:58:17.624Z,98253
2018-05-27T20:00:46.426Z,98249
2018-05-27T20:03:15.267Z,98249
2018-05-27T20:05:44.086Z,98251
2018-05-27T20:08:12.991Z,98257
2018-05-27T20:10:41.782Z,98257
2018-05-27T20:13:11.374Z,98262
2018-05-27T20:15:40.301Z,98259
2018-05-27T20:18:10.011Z,98259
2018-05-27T20:20:39.589Z,98264
2018-05-27T20:23:08.390Z,98271
2018-05-27T20:25:37.275Z,98269
2018-05-27T20:28:06.103Z,98269
2018-05-27T20:30:34.939Z,98269
2018-05-27T20:33:03.761Z,98268
2018-05-27T20:35:33.387Z,98276
2018-05-27T20:38:03.059Z,98273
2018-05-27T20:40:31.887Z,98278
2018-05-27T20:43:00.687Z,98280
2018-05-27T20:45:29.573Z,98286
2018-05-27T20:47:58.369Z,98288
2018-05-27T20:50:27.193Z,98290
2018-05-27T20:52:56.791Z,98291
2018-05-27T20:55:25.631Z,98291
2018-05-27T20:57:55.208Z,98290
2018-05-27T21:00:24.016Z,98290
2018-05-27T21:02:53.610Z,98292
2018-05-27T21:05:22.486Z,98297
2018-05-27T21:07:52.090Z,98300
2018-05-27T21:10:21.703Z,98300
2018-05-27T21:12:51.288Z,98301
2018-05-27T21:15:20.096Z,98305
2018-05-27T21:17:48.888Z,98305
2018-05-27T21:20:17.700Z,98312
2018-05-27T21:22:47.292Z,98313
2018-05-27T21:25:16.109Z,98319
2018-05-27T21:27:45.656Z,98314
2018-05-27T21:30:14.500Z,98321
2018-05-27T21:32:44.085Z,98325
2018-05-27T21:35:12.883Z,98320
2018-05-27T21:37:41.794Z,98317
2018-05-27T21:40:11.388Z,98315
2018-05-27T21:42:40.275Z,98316
2018-05-27T21:45:09.069Z,98318
2018-05-27T21:47:37.870Z,98324
2018-05-27T21:50:07.512Z,98325
2018-05-27T21:52:36.425Z,98325
2018-05-27T21:55:05.236Z,98325
2018-05-27T21:57:34.847Z,98334
2018-05-27T22:00:03.632Z,98340
2018-05-27T22:02:32.436Z,98344
2018-05-27T22:05:01.225Z,98346
2018-05-27T22:07:30.066Z,98352
2018-05-27T22:09:58.861Z,98355
2018-05-27T22:12:27.780Z,98360
2018-05-27T22:14:56.607Z,98356
2018-05-27T22:17:25.383Z,98353
2018-05-27T22:20:05.181Z,98351
2018-05-27T22:22:34.740Z,98349
2018-05-27T22:25:03.543Z,98345
2018-05-27T22:27:32.484Z,98347
2018-05-27T22:30:02.096Z,98348
2018-05-27T22:32:31.673Z,98346
2018-05-27T22:35:00.773Z,98343
2018-05-27T22:37:30.360Z,98346
2018-05-27T22:39:59.284Z,98348
2018-05-27T22:42:28.992Z,98346
2018-05-27T22:44:57.848Z,98341
2018-05-27T22:47:27.411Z,98348
2018-05-27T22:50:05.798Z,98354
2018-05-27T22:52:34.949Z,98347
2018-05-27T22:55:04.547Z,98346
2018-05-27T22:57:33.480Z,98337
2018-05-27T23:00:02.363Z,98340
2018-05-27T23:02:31.929Z,98337
2018-05-27T23:05:00.767Z,98330
2018-05-27T23:07:29.566Z,98334
2018-05-27T23:09:59.194Z,98331
2018-05-27T23:12:27.939Z,98327
2018-05-27T23:14:56.751Z,98323
2018-05-27T23:17:26.305Z,98323
2018-05-27T23:20:05.533Z,98324
2018-05-27T23:22:34.339Z,98324
2018-05-27T23:25:03.206Z,98319
2018-05-27T23:27:32.755Z,98314
2018-05-27T23:30:01.603Z,98311
2018-05-27T23:32:31.142Z,98310
2018-05-27T23:35:00.021Z,98305
2018-05-27T23:37:29.585Z,98302
2018-05-27T23:39:58.406Z,98299
2018-05-27T23:42:27.186Z,98288
2018-05-27T23:44:56.748Z,98285
2018-05-27T23:47:25.592Z,98284
2018-05-27T23:49:55.157Z,98284
2018-05-27T23:52:23.962Z,98288
2018-05-27T23:54:52.819Z,98283
2018-05-27T23:57:21.629Z,98279
2018-05-27T23:59:50.501Z,98280
